createdAt,value
2023-05-24T00:01:42.294Z,22.50
2023-05-24T00:04:11.055Z,22.40
2023-05-24T00:06:38.612Z,22.40
2023-05-24T00:09:05.937Z,22.40
2023-05-24T00:11:33.921Z,22.40
2023-05-24T00:14:01.202Z,22.50
2023-05-24T00:16:28.710Z,22.40
2023-05-24T00:18:58.214Z,22.40
2023-05-24T00:21:25.913Z,22.30
2023-05-24T00:23:53.164Z,22.30
2023-05-24T00:26:20.435Z,22.20
2023-05-24T00:28:53.673Z,22.20
2023-05-24T00:31:21.020Z,22.20
2023-05-24T00:33:48.527Z,22.00
2023-05-24T00:36:15.836Z,22.00
2023-05-24T00:38:43.193Z,22.00
2023-05-24T00:41:11.502Z,22.00
2023-05-24T00:43:38.924Z,21.90
2023-05-24T00:46:16.937Z,21.80
2023-05-24T00:48:45.568Z,21.80
2023-05-24T00:51:14.858Z,21.80
2023-05-24T00:53:45.982Z,21.80
2023-05-24T00:56:14.649Z,21.70
2023-05-24T00:58:43.057Z,21.70
2023-05-24T01:01:11.110Z,21.70
2023-05-24T01:03:39.632Z,21.70
2023-05-24T01:06:08.264Z,21.60
2023-05-24T01:09:17.106Z,21.60
2023-05-24T01:12:00.533Z,21.50
2023-05-24T01:14:56.287Z,21.50
2023-05-24T01:17:31.411Z,21.50
2023-05-24T01:20:10.208Z,21.50
2023-05-24T01:22:52.306Z,21.50
2023-05-24T01:25:45.118Z,21.50
2023-05-24T01:28:13.078Z,21.50
2023-05-24T01:30:44.475Z,21.50
2023-05-24T01:33:12.168Z,21.50
2023-05-24T01:35:42.240Z,21.50
2023-05-24T01:38:12.113Z,21.50
2023-05-24T01:40:40.937Z,21.50
2023-05-24T01:43:37.273Z,21.40
2023-05-24T01:46:28.920Z,21.40
2023-05-24T01:49:08.205Z,21.40
2023-05-24T01:51:54.577Z,21.40
2023-05-24T01:54:25.880Z,21.50
2023-05-24T01:56:57.443Z,21.40
2023-05-24T01:59:27.858Z,21.40
2023-05-24T02:01:56.456Z,21.30
2023-05-24T02:04:24.522Z,21.30
2023-05-24T02:06:51.930Z,21.20
2023-05-24T02:09:19.342Z,21.20
2023-05-24T02:11:48.960Z,21.10
2023-05-24T02:14:17.410Z,21.00
2023-05-24T02:16:48.060Z,21.00
2023-05-24T02:19:17.667Z,21.00
2023-05-24T02:21:45.067Z,21.00
2023-05-24T02:24:12.610Z,21.00
2023-05-24T02:26:40.055Z,21.00
2023-05-24T02:29:07.393Z,20.90
2023-05-24T02:31:34.715Z,20.90
2023-05-24T02:34:02.813Z,20.90
2023-05-24T02:36:34.428Z,20.90
2023-05-24T02:39:02.118Z,20.90
2023-05-24T02:41:29.521Z,20.80
2023-05-24T02:43:56.901Z,20.80
2023-05-24T02:46:24.439Z,20.80
2023-05-24T02:48:51.892Z,20.80
2023-05-24T02:51:19.230Z,20.80
2023-05-24T02:53:46.791Z,20.80
2023-05-24T02:56:14.265Z,20.70
2023-05-24T02:58:42.298Z,20.70
2023-05-24T03:01:09.768Z,20.70
2023-05-24T03:03:37.293Z,20.70
2023-05-24T03:06:09.447Z,20.60
2023-05-24T03:08:39.672Z,20.60
2023-05-24T03:11:07.110Z,20.60
2023-05-24T03:13:35.240Z,20.60
2023-05-24T03:16:02.558Z,20.60
2023-05-24T03:18:30.823Z,20.60
2023-05-24T03:20:58.228Z,20.60
2023-05-24T03:23:25.526Z,20.60
2023-05-24T03:25:53.527Z,20.50
2023-05-24T03:28:22.256Z,20.60
2023-05-24T03:30:49.833Z,20.60
2023-05-24T03:33:18.446Z,20.60
2023-05-24T03:35:47.025Z,20.60
2023-05-24T03:39:21.632Z,20.50
2023-05-24T03:41:57.857Z,20.50
2023-05-24T03:44:27.778Z,20.50
2023-05-24T03:46:55.185Z,20.50
2023-05-24T03:49:22.522Z,20.50
2023-05-24T03:51:49.986Z,20.50
2023-05-24T03:54:18.830Z,20.60
2023-05-24T03:56:46.549Z,20.60
2023-05-24T03:59:13.922Z,20.50
2023-05-24T04:01:41.355Z,20.50
2023-05-24T04:04:09.066Z,20.50
2023-05-24T04:06:38.150Z,20.50
2023-05-24T04:09:05.942Z,20.50
2023-05-24T04:11:33.523Z,20.50
2023-05-24T04:14:00.943Z,20.60
2023-05-24T04:16:29.527Z,20.60
2023-05-24T04:18:58.007Z,20.60
2023-05-24T04:21:25.502Z,20.60
2023-05-24T04:23:56.495Z,20.60
2023-05-24T04:26:23.895Z,20.50
2023-05-24T04:28:51.607Z,20.50
2023-05-24T04:31:20.182Z,20.50
2023-05-24T04:39:52.929Z,20.70
2023-05-24T04:42:20.402Z,20.60
2023-05-24T04:44:47.913Z,20.80
2023-05-24T04:47:16.250Z,21.00
2023-05-24T04:49:43.556Z,21.20
2023-05-24T04:52:10.907Z,21.40
2023-05-24T04:54:38.535Z,21.60
2023-05-24T04:57:06.130Z,21.80
2023-05-24T04:59:33.524Z,22.10
2023-05-24T05:02:01.001Z,22.20
2023-05-24T05:04:28.514Z,22.30
2023-05-24T05:06:56.246Z,22.40
2023-05-24T05:09:24.775Z,22.60
2023-05-24T05:11:52.153Z,22.60
2023-05-24T05:14:19.472Z,22.50
2023-05-24T05:16:46.969Z,22.40
2023-05-24T05:19:14.416Z,22.50
2023-05-24T05:21:41.884Z,22.80
2023-05-24T05:24:09.584Z,23.00
2023-05-24T05:26:36.979Z,22.90
2023-05-24T05:29:04.368Z,23.00
2023-05-24T05:31:31.672Z,23.00
2023-05-24T05:33:59.025Z,23.10
2023-05-24T05:36:26.499Z,23.10
2023-05-24T05:38:54.625Z,23.00
2023-05-24T05:41:22.265Z,22.90
2023-05-24T05:43:49.552Z,23.00
2023-05-24T05:46:16.988Z,23.20
2023-05-24T05:48:46.302Z,23.30
2023-05-24T05:51:14.071Z,23.60
2023-05-24T05:53:41.404Z,23.90
2023-05-24T05:56:08.809Z,24.20
2023-05-24T05:58:36.226Z,24.50
2023-05-24T06:01:03.650Z,24.80
2023-05-24T06:03:31.214Z,25.10
2023-05-24T06:06:02.004Z,25.50
2023-05-24T06:08:34.769Z,25.60
2023-05-24T06:11:02.359Z,26.00
2023-05-24T06:13:31.305Z,26.20
2023-05-24T06:15:59.078Z,26.40
2023-05-24T06:18:27.642Z,26.70
2023-05-24T06:20:54.939Z,26.90
2023-05-24T06:23:23.350Z,27.20
2023-05-24T06:25:50.844Z,27.30
2023-05-24T06:28:18.210Z,27.40
2023-05-24T06:30:46.695Z,27.70
2023-05-24T06:33:14.188Z,27.60
2023-05-24T06:35:41.620Z,27.90
2023-05-24T06:38:09.708Z,28.10
2023-05-24T06:40:37.054Z,28.40
2023-05-24T06:43:04.838Z,28.50
2023-05-24T06:45:32.736Z,28.70
2023-05-24T06:48:00.420Z,28.80
2023-05-24T06:50:28.162Z,28.60
2023-05-24T06:52:55.656Z,28.70
2023-05-24T06:55:23.266Z,28.60
2023-05-24T06:57:50.619Z,28.40
2023-05-24T07:00:24.802Z,28.30
2023-05-24T07:02:52.635Z,28.40
2023-05-24T07:05:20.305Z,28.20
2023-05-24T07:07:48.032Z,28.50
2023-05-24T07:10:15.437Z,28.90
2023-05-24T07:12:42.857Z,29.00
2023-05-24T07:15:10.282Z,29.10
2023-05-24T07:17:37.749Z,29.00
2023-05-24T07:20:10.415Z,29.10
2023-05-24T07:22:37.841Z,29.00
2023-05-24T07:25:05.555Z,29.30
2023-05-24T07:27:32.960Z,29.50
2023-05-24T07:30:00.327Z,29.80
2023-05-24T07:32:27.808Z,29.80
2023-05-24T07:34:55.203Z,30.00
2023-05-24T07:37:24.631Z,30.10
2023-05-24T07:39:52.218Z,30.20
2023-05-24T07:42:19.635Z,30.40
2023-05-24T07:44:46.961Z,30.20
2023-05-24T07:47:14.376Z,29.90
2023-05-24T07:49:41.900Z,30.00
2023-05-24T07:52:09.231Z,29.70
2023-05-24T07:54:39.933Z,29.40
2023-05-24T07:57:09.611Z,29.40
2023-05-24T07:59:37.046Z,29.60
2023-05-24T08:02:05.664Z,29.80
2023-05-24T08:04:33.343Z,29.90
2023-05-24T08:07:02.789Z,29.80
2023-05-24T08:09:33.752Z,29.40
2023-05-24T08:12:01.700Z,29.20
2023-05-24T08:14:29.128Z,29.30
2023-05-24T08:16:56.516Z,29.20
2023-05-24T08:20:02.340Z,29.40
2023-05-24T08:22:29.651Z,29.50
2023-05-24T08:24:57.380Z,29.70
2023-05-24T08:27:24.941Z,29.70
2023-05-24T08:29:55.478Z,29.80
2023-05-24T08:32:26.885Z,29.70
2023-05-24T08:35:03.591Z,29.70
2023-05-24T08:37:38.250Z,29.80
2023-05-24T08:40:09.608Z,29.50
2023-05-24T08:42:39.555Z,29.50
2023-05-24T08:45:13.204Z,29.40
2023-05-24T08:47:41.084Z,29.30
2023-05-24T08:50:09.155Z,29.10
2023-05-24T08:52:37.268Z,29.40
2023-05-24T08:55:11.317Z,29.40
2023-05-24T08:57:41.049Z,29.30
2023-05-24T09:00:11.492Z,28.90
2023-05-24T09:02:40.558Z,28.80
2023-05-24T09:05:11.066Z,28.40
2023-05-24T09:07:38.781Z,27.90
2023-05-24T09:10:08.169Z,27.70
2023-05-24T09:12:39.079Z,27.80
2023-05-24T09:15:10.074Z,27.80
2023-05-24T09:17:38.866Z,27.40
2023-05-24T09:20:11.092Z,27.00
2023-05-24T09:22:42.509Z,26.80
2023-05-24T09:25:13.442Z,27.00
2023-05-24T09:27:41.483Z,27.00
2023-05-24T09:30:10.336Z,27.10
2023-05-24T09:32:38.316Z,26.90
2023-05-24T09:35:10.067Z,27.10
2023-05-24T09:37:41.853Z,27.40
2023-05-24T09:40:19.254Z,27.30
2023-05-24T09:42:46.969Z,27.40
2023-05-24T09:45:14.809Z,27.50
2023-05-24T09:47:45.191Z,27.90
2023-05-24T09:50:19.563Z,28.10
2023-05-24T09:52:48.037Z,27.70
2023-05-24T09:55:16.995Z,27.50
2023-05-24T09:57:45.554Z,27.40
2023-05-24T10:00:16.604Z,27.60
2023-05-24T10:02:52.909Z,27.30
2023-05-24T10:05:21.618Z,27.00
2023-05-24T10:07:49.065Z,26.70
2023-05-24T10:10:16.691Z,26.90
2023-05-24T10:12:46.699Z,27.10
2023-05-24T10:15:14.297Z,27.20
2023-05-24T10:17:41.904Z,27.10
2023-05-24T10:20:12.415Z,27.10
2023-05-24T10:22:53.383Z,27.20
2023-05-24T10:25:27.428Z,27.30
2023-05-24T10:27:58.618Z,27.20
2023-05-24T10:30:43.443Z,27.10
2023-05-24T10:33:13.323Z,26.90
2023-05-24T10:35:43.049Z,26.80
2023-05-24T10:38:10.855Z,26.80
2023-05-24T10:40:42.837Z,27.00
2023-05-24T10:43:10.665Z,27.10
2023-05-24T10:45:40.688Z,26.90
2023-05-24T10:48:14.096Z,27.10
2023-05-24T10:50:42.964Z,27.20
2023-05-24T10:53:18.846Z,27.30
2023-05-24T10:55:56.326Z,27.10
2023-05-24T10:58:43.632Z,27.10
2023-05-24T11:01:24.715Z,26.80
2023-05-24T11:03:52.350Z,26.70
2023-05-24T11:06:19.798Z,26.80
2023-05-24T11:08:47.098Z,26.90
2023-05-24T11:11:26.817Z,27.10
2023-05-24T11:13:59.517Z,27.40
2023-05-24T11:16:37.562Z,27.30
2023-05-24T11:19:22.589Z,27.60
2023-05-24T11:21:53.136Z,27.80
2023-05-24T11:24:22.017Z,27.90
2023-05-24T11:26:51.199Z,28.00
2023-05-24T11:29:21.159Z,28.20
2023-05-24T11:32:05.063Z,28.20
2023-05-24T11:34:35.972Z,27.90
2023-05-24T11:37:05.581Z,27.70
2023-05-24T11:39:37.286Z,27.70
2023-05-24T11:42:06.433Z,27.50
2023-05-24T11:44:34.515Z,27.20
2023-05-24T11:47:03.310Z,27.30
2023-05-24T11:49:30.858Z,27.30
2023-05-24T11:52:01.772Z,27.30
2023-05-24T11:54:30.201Z,27.40
2023-05-24T11:56:58.218Z,27.50
2023-05-24T11:59:29.334Z,27.50
2023-05-24T12:02:02.122Z,27.70
2023-05-24T12:04:30.459Z,27.80
2023-05-24T12:06:58.314Z,27.70
2023-05-24T12:09:26.629Z,27.50
2023-05-24T12:11:54.627Z,27.30
2023-05-24T12:14:31.044Z,27.20
2023-05-24T12:16:59.415Z,27.00
2023-05-24T12:19:33.767Z,26.90
2023-05-24T12:22:09.122Z,27.00
2023-05-24T12:24:37.892Z,27.10
2023-05-24T12:27:09.671Z,27.00
2023-05-24T12:29:40.484Z,27.00
2023-05-24T12:32:14.881Z,26.90
2023-05-24T12:38:05.148Z,26.90
2023-05-24T12:40:34.863Z,27.10
2023-05-24T12:43:04.711Z,26.80
2023-05-24T12:45:32.696Z,26.70
2023-05-24T12:48:02.495Z,26.90
2023-05-24T12:50:29.995Z,27.00
2023-05-24T12:52:57.771Z,27.10
2023-05-24T12:55:26.807Z,27.30
2023-05-24T12:57:56.136Z,27.50
2023-05-24T13:00:27.330Z,27.50
2023-05-24T13:02:56.830Z,27.50
2023-05-24T13:05:25.216Z,27.50
2023-05-24T13:07:53.146Z,27.50
2023-05-24T13:10:20.488Z,27.40
2023-05-24T13:12:48.599Z,27.20
2023-05-24T13:15:15.960Z,27.10
2023-05-24T13:17:43.441Z,26.90
2023-05-24T13:20:11.869Z,26.80
2023-05-24T13:22:39.709Z,26.70
2023-05-24T13:25:08.651Z,26.70
2023-05-24T13:27:36.190Z,26.80
2023-05-24T13:30:04.628Z,26.80
2023-05-24T13:32:32.189Z,26.80
2023-05-24T13:34:59.552Z,27.00
2023-05-24T13:37:26.969Z,27.20
2023-05-24T13:39:55.784Z,27.40
2023-05-24T13:42:23.103Z,27.30
2023-05-24T13:44:50.582Z,27.10
2023-05-24T13:47:35.402Z,27.10
2023-05-24T13:50:07.553Z,27.30
2023-05-24T13:52:35.372Z,27.10
2023-05-24T13:55:06.126Z,27.20
2023-05-24T13:57:50.405Z,27.20
2023-05-24T14:00:22.257Z,27.00
2023-05-24T14:02:50.858Z,27.00
2023-05-24T14:05:27.587Z,27.00
2023-05-24T14:07:58.051Z,27.10
2023-05-24T14:10:25.543Z,27.30
2023-05-24T14:13:07.822Z,27.40
2023-05-24T14:15:40.821Z,27.50
2023-05-24T14:18:08.883Z,27.30
2023-05-24T14:20:38.219Z,27.30
2023-05-24T14:23:07.557Z,27.20
2023-05-24T14:25:35.404Z,27.30
2023-05-24T14:28:03.781Z,27.20
2023-05-24T14:30:32.221Z,27.20
2023-05-24T14:33:01.184Z,26.90
2023-05-24T14:35:29.089Z,26.90
2023-05-24T14:37:56.333Z,26.90
2023-05-24T14:40:23.932Z,27.10
2023-05-24T14:42:51.377Z,27.00
2023-05-24T14:45:18.691Z,27.00
2023-05-24T14:47:46.111Z,27.10
2023-05-24T14:50:13.595Z,27.20
2023-05-24T14:52:43.662Z,27.20
2023-05-24T14:55:11.018Z,27.10
2023-05-24T14:57:38.382Z,27.00
2023-05-24T15:00:08.311Z,27.00
2023-05-24T15:02:35.762Z,27.00
2023-05-24T15:05:03.663Z,26.80
2023-05-24T15:07:31.067Z,26.70
2023-05-24T15:09:58.404Z,26.80
2023-05-24T15:12:25.866Z,26.80
2023-05-24T15:14:53.224Z,26.80
2023-05-24T15:17:21.990Z,26.90
2023-05-24T15:19:49.475Z,26.80
2023-05-24T15:22:16.903Z,26.80
2023-05-24T15:24:44.255Z,26.70
2023-05-24T15:27:11.699Z,26.60
2023-05-24T15:29:39.098Z,26.40
2023-05-24T15:32:07.221Z,26.40
2023-05-24T15:34:34.547Z,26.20
2023-05-24T15:37:01.900Z,26.20
2023-05-24T15:39:29.307Z,26.10
2023-05-24T15:41:56.979Z,26.10
2023-05-24T15:44:24.349Z,26.00
2023-05-24T15:46:52.000Z,25.90
2023-05-24T15:49:19.636Z,26.00
2023-05-24T15:52:03.914Z,25.90
2023-05-24T15:54:32.868Z,25.90
2023-05-24T15:57:03.649Z,25.90
2023-05-24T15:59:30.936Z,25.90
2023-05-24T16:01:58.338Z,26.00
2023-05-24T16:04:25.734Z,26.00
2023-05-24T16:06:52.996Z,26.00
2023-05-24T16:09:20.348Z,25.90
2023-05-24T16:11:48.938Z,25.90
2023-05-24T16:14:16.624Z,25.80
2023-05-24T16:16:44.548Z,25.80
2023-05-24T16:19:12.183Z,25.80
2023-05-24T16:21:39.590Z,25.70
2023-05-24T16:24:07.049Z,25.70
2023-05-24T16:26:34.448Z,25.70
2023-05-24T16:29:02.237Z,25.60
2023-05-24T16:31:31.068Z,25.50
2023-05-24T16:34:01.692Z,25.40
2023-05-24T16:36:29.331Z,25.30
2023-05-24T16:38:56.610Z,25.30
2023-05-24T16:41:23.893Z,25.20
2023-05-24T16:43:51.486Z,25.20
2023-05-24T16:46:19.085Z,25.20
2023-05-24T16:48:46.577Z,25.10
2023-05-24T16:51:13.880Z,25.10
2023-05-24T16:53:41.154Z,25.10
2023-05-24T16:56:09.604Z,25.00
2023-05-24T16:58:37.492Z,25.00
2023-05-24T17:01:04.860Z,25.00
2023-05-24T17:03:34.061Z,25.10
2023-05-24T17:06:03.904Z,25.00
2023-05-24T17:08:36.030Z,25.00
2023-05-24T17:11:06.666Z,24.90
2023-05-24T17:13:34.317Z,24.90
2023-05-24T17:16:03.999Z,24.90
2023-05-24T17:18:31.419Z,24.80
2023-05-24T17:21:01.353Z,24.80
2023-05-24T17:23:31.840Z,24.70
2023-05-24T17:26:01.002Z,24.70
2023-05-24T17:28:29.121Z,24.70
2023-05-24T17:30:57.757Z,24.60
2023-05-24T17:33:26.592Z,24.60
2023-05-24T17:35:57.094Z,24.50
2023-05-24T17:38:25.254Z,24.40
2023-05-24T17:41:01.318Z,24.50
2023-05-24T17:43:33.137Z,24.40
2023-05-24T17:46:08.307Z,24.40
2023-05-24T17:48:37.987Z,24.30
2023-05-24T17:51:10.014Z,24.20
2023-05-24T17:53:38.517Z,24.30
2023-05-24T17:56:07.761Z,24.10
2023-05-24T17:58:39.113Z,24.10
2023-05-24T18:01:07.927Z,24.10
2023-05-24T18:03:40.638Z,24.20
2023-05-24T18:06:08.917Z,24.20
2023-05-24T18:08:43.065Z,23.90
2023-05-24T18:11:14.007Z,23.70
2023-05-24T18:13:42.806Z,23.20
2023-05-24T18:16:11.541Z,22.90
2023-05-24T18:18:40.502Z,22.70
2023-05-24T18:21:09.510Z,22.70
2023-05-24T18:23:40.062Z,22.50
2023-05-24T18:26:08.581Z,22.40
2023-05-24T18:28:37.522Z,22.20
2023-05-24T18:31:08.410Z,22.10
2023-05-24T18:33:36.778Z,21.70
2023-05-24T18:36:05.664Z,21.40
2023-05-24T18:38:34.593Z,21.20
2023-05-24T18:41:05.690Z,21.20
2023-05-24T18:43:34.221Z,21.00
2023-05-24T18:46:01.852Z,20.90
2023-05-24T18:48:29.172Z,20.90
2023-05-24T18:50:56.540Z,21.00
2023-05-24T18:53:25.591Z,21.10
2023-05-24T18:55:52.851Z,21.10
2023-05-24T18:58:20.200Z,21.30
2023-05-24T19:00:47.672Z,21.20
2023-05-24T19:03:15.002Z,21.20
2023-05-24T19:05:44.140Z,21.30
2023-05-24T19:08:11.736Z,21.40
2023-05-24T19:10:39.114Z,21.60
2023-05-24T19:13:06.982Z,21.70
2023-05-24T19:15:37.551Z,21.80
2023-05-24T19:18:05.256Z,21.80
2023-05-24T19:20:32.750Z,21.90
2023-05-24T19:23:00.135Z,21.90
2023-05-24T19:25:27.885Z,21.90
2023-05-24T19:27:59.984Z,22.00
2023-05-24T19:30:28.053Z,22.00
2023-05-24T19:32:55.553Z,22.10
2023-05-24T19:35:22.944Z,22.00
2023-05-24T19:37:50.281Z,22.00
2023-05-24T19:40:17.606Z,22.00
2023-05-24T19:42:44.914Z,22.10
2023-05-24T19:45:13.414Z,22.20
2023-05-24T19:47:41.316Z,22.20
2023-05-24T19:50:09.014Z,22.20
2023-05-24T19:52:36.288Z,22.20
2023-05-24T19:55:03.856Z,22.20
2023-05-24T19:57:31.316Z,22.20
2023-05-24T19:59:58.607Z,22.10
2023-05-24T20:02:26.232Z,22.10
2023-05-24T20:04:53.646Z,22.10
2023-05-24T20:07:20.930Z,22.10
2023-05-24T20:09:49.870Z,22.00
2023-05-24T20:12:17.438Z,21.90
2023-05-24T20:14:44.829Z,21.80
2023-05-24T20:17:12.230Z,21.70
2023-05-24T20:19:39.668Z,21.70
2023-05-24T20:22:07.043Z,21.70
2023-05-24T20:24:34.472Z,21.60
2023-05-24T20:27:02.271Z,21.60
2023-05-24T20:29:29.580Z,21.70
2023-05-24T20:31:57.064Z,21.80
2023-05-24T20:34:24.489Z,21.90
2023-05-24T20:36:51.934Z,22.00
2023-05-24T20:42:41.662Z,22.00
2023-05-24T20:45:09.453Z,22.00
2023-05-24T20:47:36.724Z,21.70
2023-05-24T20:50:04.349Z,21.60
2023-05-24T20:52:49.706Z,21.60
2023-05-24T20:55:18.964Z,21.70
2023-05-24T20:57:46.834Z,21.80
2023-05-24T21:00:14.415Z,21.90
2023-05-24T21:02:41.989Z,22.00
2023-05-24T21:05:09.806Z,22.00
2023-05-24T21:08:03.406Z,22.10
2023-05-24T21:10:32.245Z,22.10
2023-05-24T21:13:02.260Z,22.10
2023-05-24T21:15:31.983Z,22.10
2023-05-24T21:17:59.892Z,22.00
2023-05-24T21:20:29.468Z,22.00
2023-05-24T21:22:57.427Z,22.20
2023-05-24T21:25:25.148Z,22.20
2023-05-24T21:27:52.515Z,22.40
2023-05-24T21:30:20.084Z,22.50
2023-05-24T21:32:48.261Z,22.60
2023-05-24T21:35:16.040Z,22.70
2023-05-24T21:37:43.387Z,22.70
2023-05-24T21:40:11.630Z,22.70
2023-05-24T21:42:39.781Z,22.80
2023-05-24T21:45:08.644Z,22.80
2023-05-24T21:47:36.501Z,22.70
2023-05-24T21:50:04.370Z,22.70
2023-05-24T21:52:31.775Z,22.50
2023-05-24T21:55:01.843Z,22.50
2023-05-24T21:57:29.885Z,22.40
2023-05-24T21:59:57.953Z,22.40
2023-05-24T22:02:25.670Z,22.40
2023-05-24T22:04:53.006Z,22.30
2023-05-24T22:07:23.193Z,22.20
2023-05-24T22:09:51.130Z,22.20
2023-05-24T22:12:20.290Z,22.30
2023-05-24T22:14:48.433Z,22.30
2023-05-24T22:17:16.698Z,22.40
2023-05-24T22:19:44.404Z,22.30
2023-05-24T22:22:12.452Z,22.20
2023-05-24T22:24:40.886Z,22.00
2023-05-24T22:27:13.892Z,22.00
2023-05-24T22:29:41.476Z,22.00
2023-05-24T22:32:09.119Z,22.00
2023-05-24T22:34:36.567Z,22.00
2023-05-24T22:37:04.273Z,22.00
2023-05-24T22:39:32.434Z,22.10
2023-05-24T22:41:59.817Z,22.10
2023-05-24T22:44:27.127Z,22.20
2023-05-24T22:46:54.763Z,22.10
2023-05-24T22:49:22.728Z,22.00
2023-05-24T22:51:51.325Z,21.90
2023-05-24T22:54:18.739Z,21.80
2023-05-24T22:56:46.379Z,21.80
2023-05-24T22:59:13.862Z,21.80
2023-05-24T23:01:41.372Z,21.80
2023-05-24T23:04:19.700Z,21.80
2023-05-24T23:06:52.618Z,21.80
2023-05-24T23:09:34.001Z,21.90
2023-05-24T23:12:08.265Z,22.00
2023-05-24T23:14:38.265Z,22.00
2023-05-24T23:17:06.974Z,22.00
2023-05-24T23:19:34.381Z,22.00
2023-05-24T23:22:03.462Z,21.90
2023-05-24T23:24:31.284Z,21.90
2023-05-24T23:26:58.750Z,21.80
2023-05-24T23:29:26.121Z,21.80
2023-05-24T23:31:53.415Z,21.70
2023-05-24T23:34:20.717Z,21.70
2023-05-24T23:36:48.771Z,21.70
2023-05-24T23:39:18.167Z,21.70
2023-05-24T23:41:45.538Z,21.70
2023-05-24T23:44:12.973Z,21.70
2023-05-24T23:46:40.776Z,21.70
2023-05-24T23:49:08.122Z,21.70
2023-05-24T23:51:35.984Z,21.70
2023-05-24T23:54:03.275Z,21.70
2023-05-24T23:56:30.747Z,21.70
2023-05-24T23:58:59.846Z,21.70
